Time;durP1;ratioP1;P1;durP2;ratioP2;P2;SDS_P1;SDS_P2;PMS_P1;PMS_P2;Temp;Humidity;BMP_temperature;BMP_pressure;BME280_temperature;BME280_humidity;BME280_pressure;Samples;Min_cycle;Max_cycle;Signal;HPM_P1;HPM_P2
2021/07/31 00:01:14;;;;;;;34.15;13.75;;;;;;;22.68;70.59;94624.19;5090104;28;20524;-72
2021/07/31 00:03:41;;;;;;;37.35;13.70;;;;;;;22.66;70.37;94624.50;5093816;28;20096;-72
2021/07/31 00:06:26;;;;;;;30.23;13.05;;;;;;;22.65;70.19;94625.59;5091588;28;20036;-72
2021/07/31 00:08:53;;;;;;;32.35;14.32;;;;;;;22.66;70.19;94616.53;5091130;28;20521;-71
2021/07/31 00:11:20;;;;;;;29.30;14.38;;;;;;;22.64;70.06;94623.25;5091347;28;20032;-72
2021/07/31 00:13:47;;;;;;;32.20;13.82;;;;;;;22.55;70.36;94615.28;5091458;28;20509;-72
2021/07/31 00:16:14;;;;;;;34.92;12.82;;;;;;;22.52;70.37;94621.22;5088196;28;20050;-72
2021/07/31 00:18:42;;;;;;;29.80;12.80;;;;;;;22.43;71.21;94617.78;5092679;28;20052;-71
2021/07/31 00:21:08;;;;;;;32.00;12.60;;;;;;;22.38;71.39;94612.63;5091105;28;20093;-72
2021/07/31 00:23:35;;;;;;;30.70;13.20;;;;;;;22.31;71.60;94613.88;5087032;28;20044;-72
2021/07/31 00:26:02;;;;;;;33.10;14.13;;;;;;;22.21;72.27;94616.78;5089813;28;20073;-71
2021/07/31 00:28:29;;;;;;;24.20;14.02;;;;;;;22.14;72.38;94605.84;5093915;28;20050;-72
2021/07/31 00:30:56;;;;;;;26.77;14.63;;;;;;;22.01;73.08;94596.16;5092567;28;20486;-72
2021/07/31 00:33:23;;;;;;;33.17;13.10;;;;;;;22.06;73.04;94614.56;5090900;28;20039;-72
2021/07/31 00:35:50;;;;;;;34.58;14.88;;;;;;;22.09;72.79;94624.53;5092143;28;20043;-72
2021/07/31 00:38:17;;;;;;;33.42;14.27;;;;;;;22.05;73.05;94613.00;5072725;28;20083;-72
2021/07/31 00:40:47;;;;;;;29.75;13.93;;;;;;;22.05;72.90;94618.31;5088958;28;20040;-72
2021/07/31 00:43:14;;;;;;;32.60;15.88;;;;;;;22.00;73.17;94615.78;5087548;28;20039;-72
2021/07/31 00:45:41;;;;;;;34.20;14.65;;;;;;;21.88;73.30;94603.91;5090651;28;20310;-72
2021/07/31 00:48:08;;;;;;;28.63;13.40;;;;;;;21.91;73.68;94608.63;5070853;28;20532;-72
2021/07/31 00:50:36;;;;;;;28.65;14.10;;;;;;;21.89;73.15;94604.69;5096351;28;20036;-72
2021/07/31 00:53:02;;;;;;;32.92;15.10;;;;;;;21.80;74.71;94602.00;5095322;28;20101;-72
2021/07/31 00:55:31;;;;;;;29.88;14.32;;;;;;;21.81;74.72;94608.88;5070823;28;20048;-72
2021/07/31 00:57:59;;;;;;;30.02;14.57;;;;;;;21.87;73.84;94602.34;5069270;28;20048;-72
2021/07/31 01:00:46;;;;;;;28.40;12.80;;;;;;;21.92;73.92;94604.84;5087535;28;20036;-72
2021/07/31 01:03:13;;;;;;;32.15;14.27;;;;;;;21.96;73.79;94608.44;5093456;28;20119;-72
2021/07/31 01:05:40;;;;;;;30.38;14.50;;;;;;;21.96;73.48;94608.44;5090266;28;20475;-72
2021/07/31 01:08:07;;;;;;;37.70;14.18;;;;;;;21.91;73.44;94598.00;5090222;28;20497;-72
2021/07/31 01:10:35;;;;;;;37.60;14.98;;;;;;;21.83;73.62;94596.09;5074648;28;20074;-72
2021/07/31 01:13:03;;;;;;;24.77;14.55;;;;;;;21.82;73.71;94599.06;5088797;28;20066;-71
2021/07/31 01:15:31;;;;;;;27.60;14.35;;;;;;;21.74;73.48;94588.13;5074505;28;20101;-72
2021/07/31 01:17:58;;;;;;;29.40;13.70;;;;;;;21.68;73.87;94577.97;5089804;28;20398;-72
2021/07/31 01:20:26;;;;;;;26.42;12.57;;;;;;;21.59;74.38;94583.25;5088743;28;20036;-72
2021/07/31 01:23:00;;;;;;;34.45;13.30;;;;;;;21.51;74.14;94584.75;5070369;28;20040;-72
2021/07/31 01:25:27;;;;;;;33.28;14.60;;;;;;;21.49;74.39;94580.88;5074875;28;20118;-72
2021/07/31 01:27:54;;;;;;;31.77;13.43;;;;;;;21.41;74.20;94577.06;5093131;28;20063;-72
2021/07/31 01:30:21;;;;;;;26.27;13.50;;;;;;;21.49;74.83;94581.63;5091008;28;20085;-72
2021/07/31 01:32:48;;;;;;;33.20;14.98;;;;;;;21.45;74.81;94579.91;5090141;28;20036;-71
2021/07/31 01:35:15;;;;;;;29.00;13.10;;;;;;;21.39;75.26;94576.56;5071466;28;20127;-72
2021/07/31 01:37:42;;;;;;;35.30;15.23;;;;;;;21.39;75.15;94587.16;5090975;28;20036;-72
2021/07/31 01:40:10;;;;;;;33.38;14.82;;;;;;;21.36;75.81;94582.50;5092545;28;20585;-71
2021/07/31 01:42:37;;;;;;;35.30;13.57;;;;;;;21.39;76.09;94573.94;5070242;28;20044;-72
2021/07/31 01:45:05;;;;;;;24.05;13.13;;;;;;;21.47;75.20;94583.81;5071545;28;20036;-72
2021/07/31 01:47:33;;;;;;;25.75;13.23;;;;;;;21.51;75.35;94587.41;5071103;28;20051;-72
2021/07/31 01:50:02;;;;;;;27.00;14.38;;;;;;;21.45;75.21;94588.66;5069714;28;20070;-72
2021/07/31 01:52:37;;;;;;;32.15;14.85;;;;;;;21.40;74.48;94588.75;5071338;28;20039;-72
2021/07/31 01:55:05;;;;;;;30.45;14.70;;;;;;;21.39;75.07;94587.16;5089805;28;20032;-72
2021/07/31 01:57:34;;;;;;;26.48;14.15;;;;;;;21.44;75.85;94592.34;5074947;28;20591;-72
2021/07/31 02:00:17;;;;;;;29.73;13.27;;;;;;;21.42;74.98;94586.56;5089259;28;20132;-72
2021/07/31 02:03:03;;;;;;;30.05;14.45;;;;;;;21.37;75.11;94584.03;5071206;28;20390;-72
2021/07/31 02:05:38;;;;;;;29.48;13.50;;;;;;;21.34;75.46;94585.44;5074719;28;20066;-72
2021/07/31 02:08:07;;;;;;;32.75;14.10;;;;;;;21.25;75.35;94570.59;5072898;28;20548;-72
2021/07/31 02:10:47;;;;;;;29.27;14.75;;;;;;;21.31;75.26;94580.75;5060058;28;20053;-72
2021/07/31 02:13:14;;;;;;;37.40;15.80;;;;;;;21.27;75.61;94589.63;5055127;28;20495;-72
2021/07/31 02:15:44;;;;;;;28.67;15.93;;;;;;;21.22;75.46;94587.88;5057676;28;20056;-72
2021/07/31 02:18:14;;;;;;;34.35;14.18;;;;;;;21.18;75.73;94587.69;5057348;28;20044;-72
2021/07/31 02:20:43;;;;;;;38.63;16.45;;;;;;;21.16;75.30;94583.81;5055143;28;20521;-72
2021/07/31 02:23:29;;;;;;;28.70;17.45;;;;;;;21.08;75.85;94582.66;5058396;28;20586;-72
2021/07/31 02:26:16;;;;;;;34.00;19.23;;;;;;;21.05;76.11;94588.56;5058493;28;20064;-71
2021/07/31 02:28:43;;;;;;;45.15;20.58;;;;;;;20.96;75.67;94570.00;5058860;28;20037;-72
2021/07/31 02:31:12;;;;;;;37.10;22.05;;;;;;;21.04;76.19;94591.53;5060376;28;20047;-72
2021/07/31 02:33:43;;;;;;;48.53;23.90;;;;;;;21.02;75.51;94588.41;5054908;28;20091;-72
2021/07/31 02:36:11;;;;;;;49.85;26.13;;;;;;;20.99;75.42;94595.06;5061997;28;20490;-72
2021/07/31 02:38:45;;;;;;;63.63;39.40;;;;;;;20.96;75.77;94596.47;5058212;28;20036;-72
2021/07/31 02:41:12;;;;;;;78.13;45.35;;;;;;;20.87;75.96;94586.88;5062128;28;20128;-72
2021/07/31 02:43:39;;;;;;;68.47;41.03;;;;;;;20.89;76.46;94600.63;5059903;28;20044;-72
2021/07/31 02:46:09;;;;;;;70.65;43.95;;;;;;;20.86;76.69;94602.00;5060365;28;20067;-72
2021/07/31 02:48:38;;;;;;;63.70;42.10;;;;;;;20.83;76.31;94607.09;5062598;28;20106;-72
2021/07/31 02:51:07;;;;;;;63.42;37.17;;;;;;;20.83;76.88;94604.47;5056809;28;20048;-69
2021/07/31 02:54:06;;;;;;;51.70;29.05;;;;;;;20.80;76.52;94603.22;5037126;28;20548;-72
2021/07/31 02:56:34;;;;;;;52.15;34.53;;;;;;;20.83;76.27;94602.59;5060696;28;20040;-72
2021/07/31 02:59:05;;;;;;;63.30;36.78;;;;;;;20.81;76.28;94610.03;5065141;28;20052;-72
2021/07/31 03:01:34;;;;;;;45.92;32.33;;;;;;;20.77;76.32;94609.88;5056846;28;20048;-71
2021/07/31 03:04:02;;;;;;;52.85;29.30;;;;;;;20.75;76.50;94614.69;5065176;28;20040;-72
2021/07/31 03:06:29;;;;;;;42.00;27.27;;;;;;;20.72;76.62;94609.97;5062667;28;20036;-72
2021/07/31 03:08:56;;;;;;;47.10;27.73;;;;;;;20.74;76.04;94605.19;5060663;28;20477;-71
2021/07/31 03:11:24;;;;;;;47.80;26.33;;;;;;;20.77;76.58;94615.16;5074207;28;20046;-72
2021/07/31 03:13:51;;;;;;;49.63;26.60;;;;;;;20.74;77.13;94609.69;5091214;28;20507;-72
2021/07/31 03:16:22;;;;;;;37.97;23.35;;;;;;;20.69;77.37;94602.66;5090397;28;20375;-72
2021/07/31 03:18:56;;;;;;;48.80;22.88;;;;;;;20.59;77.20;94608.16;5072740;28;20555;-72
2021/07/31 03:21:23;;;;;;;47.25;23.05;;;;;;;20.47;77.64;94610.53;5069101;28;20399;-72
2021/07/31 03:24:02;;;;;;;43.05;21.80;;;;;;;20.41;78.04;94612.50;5075420;28;20059;-72
2021/07/31 03:26:29;;;;;;;52.38;25.27;;;;;;;20.42;78.88;94614.88;5090512;28;20055;-72
2021/07/31 03:28:58;;;;;;;49.70;23.17;;;;;;;20.45;78.39;94613.47;5072199;28;20097;-72
2021/07/31 03:31:25;;;;;;;44.13;20.30;;;;;;;20.43;78.18;94611.13;5077019;28;20040;-72
2021/07/31 03:33:56;;;;;;;44.55;22.15;;;;;;;20.45;78.21;94608.19;5075367;28;20506;-72
2021/07/31 03:36:25;;;;;;;49.60;21.30;;;;;;;20.41;78.63;94612.50;5092102;28;20162;-72
2021/07/31 03:39:07;;;;;;;40.25;20.42;;;;;;;20.40;78.35;94619.66;5093026;28;20106;-72
2021/07/31 03:41:36;;;;;;;55.13;20.23;;;;;;;20.37;78.46;94617.63;5089534;28;20036;-72
2021/07/31 03:44:05;;;;;;;49.25;19.98;;;;;;;20.40;78.25;94617.03;5094270;28;20040;-72
2021/07/31 03:46:42;;;;;;;38.20;19.35;;;;;;;20.42;78.42;94625.44;5073522;28;20564;-72
2021/07/31 03:49:10;;;;;;;37.15;20.45;;;;;;;20.38;78.69;94613.91;5076284;28;20547;-72
2021/07/31 03:51:36;;;;;;;40.80;19.92;;;;;;;20.49;78.52;94624.25;5091870;28;20725;-72
2021/07/31 03:54:04;;;;;;;43.00;20.45;;;;;;;20.44;78.87;94612.69;5074226;28;20044;-72
2021/07/31 03:56:31;;;;;;;40.97;20.98;;;;;;;20.50;78.35;94625.81;5091748;28;20051;-72
2021/07/31 03:59:02;;;;;;;44.65;19.08;;;;;;;20.51;78.62;94614.13;5073051;28;20211;-72
2021/07/31 04:01:29;;;;;;;42.25;20.55;;;;;;;20.57;78.38;94620.91;5091456;28;20090;-72
2021/07/31 04:04:02;;;;;;;55.75;18.83;;;;;;;20.55;78.25;94613.25;5089742;28;20501;-72
2021/07/31 04:06:30;;;;;;;36.65;18.20;;;;;;;20.66;78.62;94624.41;5071523;28;20044;-72
2021/07/31 04:09:29;;;;;;;35.95;18.00;;;;;;;20.71;78.06;94626.97;5087781;28;20048;-72
2021/07/31 04:12:14;;;;;;;31.17;17.00;;;;;;;20.67;78.14;94620.72;5087338;28;20083;-72
2021/07/31 04:15:00;;;;;;;39.33;18.30;;;;;;;20.67;78.04;94628.66;5092852;28;20070;-72
2021/07/31 04:17:27;;;;;;;39.05;18.17;;;;;;;20.74;78.37;94630.84;5070157;28;20386;-72
2021/07/31 04:19:54;;;;;;;41.05;17.55;;;;;;;20.84;78.73;94632.50;5071919;28;20048;-72
2021/07/31 04:22:22;;;;;;;66.38;19.95;;;;;;;20.83;79.17;94633.56;5068912;28;20085;-72
2021/07/31 04:24:52;;;;;;;55.40;19.45;;;;;;;20.79;80.13;94626.22;5072272;28;20505;-72
2021/07/31 04:27:19;;;;;;;43.40;19.17;;;;;;;20.89;80.06;94642.97;5089325;28;20036;-71
2021/07/31 04:29:46;;;;;;;42.30;18.02;;;;;;;20.86;81.06;94643.56;5089464;28;20039;-72
2021/07/31 04:32:13;;;;;;;48.28;19.95;;;;;;;20.89;81.89;94642.97;5089411;28;20556;-72
2021/07/31 04:34:39;;;;;;;41.83;18.27;;;;;;;20.94;82.15;94648.13;5088132;28;20900;-71
2021/07/31 04:37:06;;;;;;;41.47;19.45;;;;;;;20.98;82.24;94651.75;5092308;28;20428;-72
2021/07/31 04:39:33;;;;;;;40.72;19.05;;;;;;;20.97;82.66;94642.25;5086635;28;20044;-72
2021/07/31 04:42:00;;;;;;;43.80;18.85;;;;;;;21.04;83.69;94650.53;5089056;28;20040;-72
2021/07/31 04:44:27;;;;;;;45.15;22.27;;;;;;;21.11;84.06;94650.13;5070800;28;20055;-72
2021/07/31 04:46:54;;;;;;;38.60;22.30;;;;;;;21.19;84.70;94655.47;5092059;28;20051;-72
2021/07/31 04:49:21;;;;;;;40.63;19.88;;;;;;;21.25;84.07;94655.34;5089838;28;20044;-72
2021/07/31 04:51:48;;;;;;;44.50;20.05;;;;;;;21.30;83.91;94647.28;5090426;28;20040;-72
2021/07/31 04:54:15;;;;;;;41.47;18.58;;;;;;;21.47;83.27;94662.53;5086802;28;20044;-72
2021/07/31 04:56:43;;;;;;;38.00;18.13;;;;;;;21.54;83.09;94668.19;5087223;28;20035;-71
2021/07/31 04:59:10;;;;;;;32.33;17.15;;;;;;;21.65;82.16;94668.69;5090334;28;20035;-72
2021/07/31 05:01:37;;;;;;;40.60;17.05;;;;;;;21.76;81.52;94667.34;5088649;28;20040;-72
2021/07/31 05:04:04;;;;;;;34.60;15.82;;;;;;;21.86;79.99;94667.06;5091325;28;20044;-72
2021/07/31 05:06:31;;;;;;;35.13;14.60;;;;;;;21.93;78.94;94664.75;5091450;28;20044;-72
2021/07/31 05:08:57;;;;;;;39.03;15.85;;;;;;;22.10;77.61;94673.84;5092788;28;20040;-72
2021/07/31 05:11:24;;;;;;;34.55;16.92;;;;;;;22.18;76.55;94678.38;5089765;28;22055;-71
2021/07/31 05:13:52;;;;;;;31.77;15.02;;;;;;;22.30;76.58;94683.91;5089454;28;20116;-72
2021/07/31 05:16:19;;;;;;;36.67;16.35;;;;;;;22.40;76.73;94676.75;5086453;28;20040;-71
2021/07/31 05:18:46;;;;;;;35.92;15.32;;;;;;;22.52;76.07;94679.59;5088304;28;20459;-73
2021/07/31 05:21:13;;;;;;;40.58;17.13;;;;;;;22.57;76.15;94682.09;5086782;28;20040;-73
2021/07/31 05:23:40;;;;;;;39.17;18.25;;;;;;;22.60;76.28;94678.84;5088396;28;20036;-73
2021/07/31 05:26:08;;;;;;;37.70;16.38;;;;;;;22.68;75.98;94693.19;5090225;28;20426;-72
2021/07/31 05:28:35;;;;;;;36.92;16.52;;;;;;;22.77;76.11;94685.25;5088671;28;20575;-73
2021/07/31 05:31:02;;;;;;;53.28;15.98;;;;;;;22.85;74.68;94687.91;5090982;28;20413;-71
2021/07/31 05:33:29;;;;;;;53.67;18.08;;;;;;;22.92;74.78;94692.72;5089353;28;20055;-72
2021/07/31 05:35:56;;;;;;;45.35;17.48;;;;;;;22.98;74.21;94696.81;5089527;28;20048;-72
2021/07/31 05:38:22;;;;;;;51.45;17.15;;;;;;;22.97;71.80;94695.25;5089715;28;20421;-72
2021/07/31 05:40:49;;;;;;;46.08;18.83;;;;;;;23.00;71.29;94699.94;5088143;28;20066;-73
2021/07/31 05:43:16;;;;;;;39.28;16.55;;;;;;;23.07;71.30;94692.31;5089858;28;20528;-72
2021/07/31 05:45:43;;;;;;;38.00;15.30;;;;;;;23.06;72.79;94682.75;5086788;28;20048;-72
2021/07/31 05:48:10;;;;;;;42.10;16.55;;;;;;;23.15;73.17;94689.97;5086881;28;20693;-73
2021/07/31 05:50:38;;;;;;;42.83;16.58;;;;;;;23.29;72.25;94706.50;5089580;28;20044;-73
2021/07/31 05:53:05;;;;;;;51.53;18.20;;;;;;;23.25;70.15;94705.59;5089332;28;20056;-72
2021/07/31 05:55:32;;;;;;;61.47;18.70;;;;;;;23.30;71.33;94708.09;5091206;28;20452;-72
2021/07/31 05:58:01;;;;;;;61.92;18.20;;;;;;;23.47;71.15;94707.28;5069901;28;20048;-73
2021/07/31 06:00:28;;;;;;;46.58;17.83;;;;;;;23.56;71.50;94699.28;5087987;28;20040;-73
2021/07/31 06:02:54;;;;;;;52.63;17.58;;;;;;;23.62;69.50;94698.00;5089001;28;20032;-72
2021/07/31 06:05:21;;;;;;;40.45;16.05;;;;;;;23.65;69.66;94697.38;5088897;28;20040;-73
2021/07/31 06:07:48;;;;;;;39.08;16.23;;;;;;;23.76;70.02;94687.97;5093929;28;20093;-72
2021/07/31 06:10:15;;;;;;;39.22;17.40;;;;;;;23.87;69.51;94687.66;5088204;28;21505;-72
2021/07/31 06:12:42;;;;;;;36.85;15.85;;;;;;;23.92;67.60;94679.50;5090248;28;20425;-72
2021/07/31 06:15:09;;;;;;;34.92;15.27;;;;;;;23.98;67.49;94688.84;5088302;28;20044;-72
2021/07/31 06:17:36;;;;;;;36.70;15.23;;;;;;;24.07;65.05;94692.25;5092702;28;20044;-73
2021/07/31 06:20:05;;;;;;;35.03;14.50;;;;;;;24.05;64.09;94686.47;5090366;28;20123;-72
2021/07/31 06:22:31;;;;;;;36.67;14.68;;;;;;;24.21;64.51;94687.47;5091399;28;20043;-73
2021/07/31 06:24:58;;;;;;;35.13;14.05;;;;;;;24.35;63.58;94694.47;5072330;28;20040;-72
2021/07/31 06:27:25;;;;;;;36.38;14.18;;;;;;;24.42;63.39;94687.53;5089796;28;20444;-72
2021/07/31 06:29:52;;;;;;;28.33;14.10;;;;;;;24.48;64.53;94696.13;5091811;28;20048;-72
2021/07/31 06:32:18;;;;;;;35.60;14.75;;;;;;;24.58;63.84;94690.44;5091805;28;20032;-72
2021/07/31 06:34:45;;;;;;;34.38;15.27;;;;;;;24.69;64.79;94684.75;5090016;28;20454;-73
2021/07/31 06:37:12;;;;;;;38.90;14.43;;;;;;;24.80;64.31;94691.25;5089819;28;20051;-72
2021/07/31 06:39:39;;;;;;;41.47;14.95;;;;;;;24.92;64.80;94688.66;5090399;28;20448;-73
2021/07/31 06:42:06;;;;;;;35.90;14.95;;;;;;;25.03;64.51;94682.91;5091339;28;20080;-72
2021/07/31 06:44:33;;;;;;;31.90;14.13;;;;;;;25.21;65.02;94684.34;5088344;28;20409;-73
2021/07/31 06:47:00;;;;;;;31.38;14.07;;;;;;;25.46;63.63;94689.75;5091007;28;20040;-73
2021/07/31 06:49:27;;;;;;;37.38;14.98;;;;;;;25.62;61.60;94688.03;5090809;28;20047;-72
2021/07/31 06:51:53;;;;;;;34.03;14.80;;;;;;;25.79;60.36;94683.63;5089640;28;20509;-72
2021/07/31 06:54:20;;;;;;;31.60;15.60;;;;;;;25.89;60.71;94680.53;5092391;28;20040;-72
2021/07/31 06:56:47;;;;;;;41.88;14.55;;;;;;;26.02;60.66;94682.13;5092679;28;20040;-71
2021/07/31 06:59:14;;;;;;;34.25;13.68;;;;;;;26.15;60.57;94682.16;5092139;28;20047;-72
2021/07/31 07:01:41;;;;;;;38.35;14.93;;;;;;;26.36;58.83;94682.00;5090837;28;20048;-72
2021/07/31 07:04:08;;;;;;;50.95;14.40;;;;;;;26.57;58.16;94687.22;5093497;28;20527;-71
2021/07/31 07:06:35;;;;;;;39.80;15.93;;;;;;;26.63;57.42;94678.69;5089585;28;20051;-72
2021/07/31 07:09:01;;;;;;;36.25;13.63;;;;;;;26.85;56.44;94680.06;5089256;28;20043;-71
2021/07/31 07:11:28;;;;;;;28.13;12.85;;;;;;;26.87;55.87;94685.06;5089383;28;20179;-71
2021/07/31 07:13:55;;;;;;;32.88;14.23;;;;;;;26.96;56.13;94676.94;5090705;28;20761;-72
2021/07/31 07:16:22;;;;;;;39.30;14.52;;;;;;;27.13;55.22;94676.63;5088201;28;20044;-71
2021/07/31 07:18:49;;;;;;;34.00;13.02;;;;;;;27.23;54.93;94681.50;5074281;28;20050;-72
2021/07/31 07:21:15;;;;;;;29.67;12.73;;;;;;;27.31;56.25;94671.03;5088837;28;20043;-72
2021/07/31 07:23:42;;;;;;;28.88;13.02;;;;;;;27.34;56.27;94681.03;5088668;28;20082;-71
2021/07/31 07:26:10;;;;;;;41.65;13.38;;;;;;;27.50;53.80;94678.41;5088938;28;20822;-71
2021/07/31 07:28:38;;;;;;;41.72;13.25;;;;;;;27.58;53.84;94675.56;5088348;28;20043;-72
2021/07/31 07:31:05;;;;;;;39.28;13.82;;;;;;;27.75;51.37;94669.13;5090272;28;20124;-71
2021/07/31 07:33:33;;;;;;;32.15;12.43;;;;;;;27.93;51.17;94669.59;5089059;28;20036;-72
2021/07/31 07:36:00;;;;;;;31.23;13.10;;;;;;;28.03;51.09;94674.38;5089876;28;20047;-72
2021/07/31 07:38:27;;;;;;;28.63;12.80;;;;;;;28.19;50.17;94676.28;5089001;28;21899;-71
2021/07/31 07:40:54;;;;;;;31.77;13.25;;;;;;;28.44;49.32;94670.75;5090271;28;20058;-72
2021/07/31 07:43:20;;;;;;;40.08;12.73;;;;;;;28.65;50.04;94673.91;5089743;28;20039;-72
2021/07/31 07:45:47;;;;;;;39.40;13.80;;;;;;;28.75;48.72;94673.34;5091279;28;20058;-72
2021/07/31 07:48:14;;;;;;;30.70;13.57;;;;;;;28.84;50.19;94673.16;5088331;28;20417;-72
2021/07/31 07:50:41;;;;;;;26.58;12.60;;;;;;;29.09;46.82;94673.66;5088498;28;20103;-72
2021/07/31 07:53:08;;;;;;;33.20;12.38;;;;;;;29.25;47.45;94680.88;5088367;28;20036;-72
2021/07/31 07:55:35;;;;;;;30.88;12.63;;;;;;;29.47;47.20;94672.09;5088591;28;20466;-72
2021/07/31 07:58:06;;;;;;;39.20;13.95;;;;;;;29.65;45.12;94669.72;5088652;28;20115;-72
2021/07/31 08:00:33;;;;;;;37.00;14.40;;;;;;;29.82;45.41;94659.69;5070120;28;20055;-71
2021/07/31 08:03:00;;;;;;;41.72;13.40;;;;;;;30.08;45.40;94672.38;5088392;28;20068;-72
2021/07/31 08:05:27;;;;;;;37.58;13.23;;;;;;;30.26;46.14;94667.28;5089547;28;20434;-71
2021/07/31 08:07:54;;;;;;;32.60;13.45;;;;;;;30.45;44.17;94663.72;5089562;28;20036;-72
2021/07/31 08:10:21;;;;;;;26.48;11.85;;;;;;;30.46;43.13;94660.69;5088099;28;20048;-72
2021/07/31 08:12:48;;;;;;;28.08;12.05;;;;;;;30.65;42.78;94661.72;5092616;28;20043;-71
2021/07/31 08:15:15;;;;;;;35.13;12.30;;;;;;;30.77;41.82;94668.78;5087992;28;20395;-72
2021/07/31 08:17:41;;;;;;;33.00;11.13;;;;;;;30.98;43.85;94658.31;5089583;28;20040;-72
2021/07/31 08:20:09;;;;;;;36.00;12.35;;;;;;;31.11;43.87;94666.16;5089323;28;20034;-71
2021/07/31 08:22:35;;;;;;;30.05;13.38;;;;;;;31.41;41.60;94661.50;5089936;28;20036;-72
2021/07/31 08:25:06;;;;;;;35.50;11.98;;;;;;;31.47;41.37;94661.16;5086952;28;20599;-72
2021/07/31 08:27:33;;;;;;;31.88;11.70;;;;;;;31.64;41.29;94660.59;5088401;28;20119;-72
2021/07/31 08:30:01;;;;;;;35.67;12.20;;;;;;;31.82;40.29;94661.53;5088211;28;20036;-72
2021/07/31 08:32:27;;;;;;;26.05;11.25;;;;;;;31.94;40.50;94657.00;5087754;28;20040;-73
2021/07/31 08:34:54;;;;;;;29.60;11.55;;;;;;;32.11;39.97;94661.03;5087462;28;20039;-72
2021/07/31 08:37:21;;;;;;;37.40;11.65;;;;;;;32.24;40.14;94659.56;5088963;28;20047;-73
2021/07/31 08:39:48;;;;;;;35.50;11.68;;;;;;;32.33;39.15;94661.94;5090659;28;20036;-73
2021/07/31 08:42:15;;;;;;;33.40;12.00;;;;;;;32.38;39.58;94658.91;5088497;28;20115;-72
2021/07/31 08:44:42;;;;;;;32.08;12.07;;;;;;;32.69;39.68;94656.81;5092233;28;20040;-72
2021/07/31 08:47:10;;;;;;;34.88;11.48;;;;;;;32.84;38.20;94653.00;5088322;28;20043;-72
2021/07/31 08:49:39;;;;;;;33.38;11.68;;;;;;;32.96;37.08;94657.31;5068722;28;20135;-72
2021/07/31 08:52:07;;;;;;;37.88;10.75;;;;;;;33.17;37.42;94662.06;5089134;28;20505;-73
2021/07/31 08:54:39;;;;;;;34.45;12.10;;;;;;;33.39;36.88;94645.91;5089616;28;20379;-72
2021/07/31 08:57:06;;;;;;;29.13;11.00;;;;;;;33.55;35.39;94646.34;5088863;28;20062;-72
2021/07/31 08:59:33;;;;;;;36.13;10.70;;;;;;;33.78;35.79;94659.50;5085969;28;20032;-73
2021/07/31 09:02:01;;;;;;;35.03;11.23;;;;;;;33.96;35.00;94647.91;5086395;28;20044;-72
2021/07/31 09:04:28;;;;;;;26.92;10.55;;;;;;;33.86;34.23;94639.44;5087848;28;20438;-72
2021/07/31 09:06:55;;;;;;;31.70;10.18;;;;;;;33.99;33.47;94647.91;5089506;28;20052;-73
2021/07/31 09:09:24;;;;;;;25.15;10.55;;;;;;;34.21;33.83;94637.13;5090084;28;20065;-72
2021/07/31 09:12:04;;;;;;;30.65;10.25;;;;;;;34.25;33.75;94648.69;5092746;28;20112;-72
2021/07/31 09:14:32;;;;;;;34.63;11.10;;;;;;;34.51;33.35;94638.63;5086962;28;20051;-72
2021/07/31 09:16:59;;;;;;;35.60;10.52;;;;;;;34.70;33.08;94646.34;5086361;28;20067;-73
2021/07/31 09:19:28;;;;;;;32.00;10.80;;;;;;;34.96;32.62;94636.19;5087978;28;20046;-73
2021/07/31 09:22:04;;;;;;;24.45;10.52;;;;;;;34.90;35.28;94638.53;5087010;28;20489;-73
2021/07/31 09:24:31;;;;;;;26.23;9.55;;;;;;;35.23;32.64;94629.13;5087128;28;20028;-73
2021/07/31 09:26:57;;;;;;;39.92;10.80;;;;;;;35.66;31.37;94632.75;5090750;28;20048;-72
2021/07/31 09:29:37;;;;;;;33.25;10.48;;;;;;;35.79;31.14;94636.53;5072610;28;20044;-73
2021/07/31 09:32:06;;;;;;;33.28;11.27;;;;;;;35.89;31.00;94630.28;5087393;28;20040;-73
2021/07/31 09:34:37;;;;;;;28.67;11.05;;;;;;;35.59;30.43;94628.16;5087890;28;20043;-73
2021/07/31 09:37:25;;;;;;;27.20;10.13;;;;;;;35.08;31.69;94624.94;5089191;28;20448;-73
2021/07/31 09:39:58;;;;;;;40.40;11.65;;;;;;;35.38;32.29;94623.63;5090915;28;20050;-73
2021/07/31 09:42:31;;;;;;;25.58;10.30;;;;;;;35.89;30.78;94622.16;5094769;28;20043;-73
2021/07/31 09:45:01;;;;;;;25.95;9.77;;;;;;;36.19;31.01;94612.63;5072385;28;20071;-73
2021/07/31 09:47:27;;;;;;;31.65;9.45;;;;;;;36.38;31.05;94605.09;5091924;28;20036;-73
2021/07/31 09:49:54;;;;;;;32.25;11.55;;;;;;;36.71;29.30;94611.72;5094824;28;20043;-73
2021/07/31 09:52:23;;;;;;;31.70;10.10;;;;;;;36.86;27.92;94623.16;5092470;28;20040;-73
2021/07/31 09:54:51;;;;;;;28.00;9.52;;;;;;;37.02;27.70;94609.03;5091796;28;20040;-73
2021/07/31 09:57:18;;;;;;;26.38;9.45;;;;;;;37.22;26.72;94611.88;5091971;28;20050;-72
2021/07/31 09:59:50;;;;;;;31.90;10.73;;;;;;;37.03;27.18;94603.19;5096069;28;20413;-73
2021/07/31 10:02:19;;;;;;;18.90;9.00;;;;;;;36.99;26.58;94609.81;5096258;28;20044;-73
2021/07/31 10:04:47;;;;;;;23.63;9.57;;;;;;;36.58;27.91;94607.97;5093878;28;20067;-72
2021/07/31 10:07:15;;;;;;;28.67;9.80;;;;;;;36.43;28.01;94601.91;5092705;28;20043;-72
2021/07/31 10:09:49;;;;;;;23.27;9.77;;;;;;;36.69;29.79;94576.84;5089967;28;20072;-73
2021/07/31 10:12:21;;;;;;;22.67;8.80;;;;;;;36.98;28.66;94587.34;5075898;28;20055;-72
2021/07/31 10:14:48;;;;;;;34.55;10.23;;;;;;;36.85;27.38;94583.66;5093349;28;20036;-73
2021/07/31 10:17:15;;;;;;;24.67;8.82;;;;;;;36.94;26.63;94578.50;5089623;28;20047;-73
2021/07/31 10:19:44;;;;;;;22.85;9.68;;;;;;;37.04;26.23;94574.88;5092434;28;20462;-73
2021/07/31 10:22:13;;;;;;;29.40;9.55;;;;;;;37.35;27.29;94579.50;5089040;28;20044;-73
2021/07/31 10:25:01;;;;;;;28.85;11.05;;;;;;;37.01;29.96;94580.34;5091122;28;20074;-72
2021/07/31 10:27:28;;;;;;;32.03;10.27;;;;;;;37.08;26.43;94572.13;5091446;28;20511;-73
2021/07/31 10:29:56;;;;;;;35.72;9.23;;;;;;;37.20;26.79;94574.28;5072790;28;20541;-73
2021/07/31 10:32:22;;;;;;;31.20;10.20;;;;;;;37.63;25.91;94568.22;5091146;28;20059;-73
2021/07/31 10:34:57;;;;;;;26.75;9.85;;;;;;;37.87;24.99;94574.47;5092260;28;20040;-72
2021/07/31 10:37:31;;;;;;;28.27;9.57;;;;;;;37.99;26.09;94564.16;5092743;28;20047;-73
2021/07/31 10:40:37;;;;;;;27.63;9.43;;;;;;;37.88;25.30;94573.25;5090638;28;20064;-73
2021/07/31 10:43:05;;;;;;;30.35;9.13;;;;;;;38.00;27.41;94565.72;5073034;28;20094;-73
2021/07/31 10:45:33;;;;;;;30.67;10.85;;;;;;;38.14;25.31;94565.50;5090826;28;20036;-72
2021/07/31 10:48:01;;;;;;;27.30;10.23;;;;;;;38.34;24.90;94556.56;5090486;28;20046;-72
2021/07/31 10:50:29;;;;;;;23.58;10.18;;;;;;;38.02;26.42;94552.47;5088604;28;20036;-73
2021/07/31 10:53:10;;;;;;;25.90;9.00;;;;;;;37.85;28.23;94554.28;5093963;28;20048;-73
2021/07/31 10:55:37;;;;;;;32.17;9.98;;;;;;;37.72;26.02;94551.41;5091866;28;20050;-73
2021/07/31 10:58:14;;;;;;;30.35;9.93;;;;;;;37.74;25.69;94549.03;5092059;28;20124;-72
2021/07/31 11:00:49;;;;;;;24.30;8.85;;;;;;;38.02;25.03;94553.22;5090123;28;20485;-73
2021/07/31 11:03:20;;;;;;;25.85;9.73;;;;;;;38.47;23.86;94543.88;5091667;28;20604;-72
2021/07/31 11:05:47;;;;;;;32.83;9.98;;;;;;;38.53;24.12;94552.31;5091771;28;20071;-73
2021/07/31 11:08:19;;;;;;;26.63;9.60;;;;;;;38.84;25.35;94549.38;5090303;28;20501;-73
2021/07/31 11:10:47;;;;;;;24.48;11.25;;;;;;;38.63;26.15;94545.94;5092706;28;20048;-73
2021/07/31 11:13:17;;;;;;;27.10;9.57;;;;;;;39.63;23.24;94542.22;5090412;28;20032;-73
2021/07/31 11:15:56;;;;;;;32.75;10.43;;;;;;;39.71;23.48;94543.59;5090045;28;20036;-72
2021/07/31 11:18:25;;;;;;;27.10;9.32;;;;;;;39.12;25.14;94537.16;5090436;28;20066;-73
2021/07/31 11:20:52;;;;;;;37.33;10.35;;;;;;;38.71;24.67;94530.97;5088946;28;20047;-72
2021/07/31 11:23:23;;;;;;;30.10;10.60;;;;;;;39.17;25.12;94539.38;5090176;28;20047;-72
2021/07/31 11:25:50;;;;;;;27.77;10.02;;;;;;;39.80;23.42;94540.22;5089701;28;20534;-73